createdAt,value
2018-09-02T00:00:50.554Z,16.93
2018-09-02T00:01:50.385Z,16.94
2018-09-02T00:02:50.656Z,16.92
2018-09-02T00:03:50.510Z,16.92
2018-09-02T00:04:50.600Z,16.9
2018-09-02T00:05:50.449Z,16.89
2018-09-02T00:06:50.428Z,16.84
2018-09-02T00:07:50.379Z,16.85
2018-09-02T00:08:50.392Z,16.85
2018-09-02T00:09:50.405Z,16.86
2018-09-02T00:10:50.412Z,16.86
2018-09-02T00:11:50.726Z,16.86
2018-09-02T00:12:50.557Z,16.87
2018-09-02T00:13:50.631Z,16.86
2018-09-02T00:14:50.425Z,16.85
2018-09-02T00:15:50.384Z,16.84
2018-09-02T00:16:50.376Z,16.82
2018-09-02T00:17:50.447Z,16.82
2018-09-02T00:18:50.608Z,16.8
2018-09-02T00:19:50.377Z,16.8
2018-09-02T00:20:50.427Z,16.8
2018-09-02T00:21:50.573Z,16.79
2018-09-02T00:22:50.412Z,16.78
2018-09-02T00:23:50.372Z,16.76
2018-09-02T00:24:50.431Z,16.76
2018-09-02T00:25:50.392Z,16.75
2018-09-02T00:26:50.404Z,16.75
2018-09-02T00:27:50.525Z,16.73
2018-09-02T00:28:50.565Z,16.73
2018-09-02T00:29:50.371Z,16.73
2018-09-02T00:30:50.420Z,16.71
2018-09-02T00:31:50.408Z,16.69
2018-09-02T00:32:50.918Z,16.68
2018-09-02T00:33:51.603Z,16.65
2018-09-02T00:34:50.534Z,16.63
2018-09-02T00:35:50.401Z,16.6
2018-09-02T00:36:50.409Z,16.6
2018-09-02T00:37:50.424Z,16.57
2018-09-02T00:38:50.475Z,16.54
2018-09-02T00:39:50.404Z,16.51
2018-09-02T00:40:50.430Z,16.49
2018-09-02T00:41:50.450Z,16.49
2018-09-02T00:42:50.425Z,16.5
2018-09-02T00:43:50.527Z,16.49
2018-09-02T00:44:50.465Z,16.47
2018-09-02T00:45:50.432Z,16.45
2018-09-02T00:46:50.461Z,16.45
2018-09-02T00:47:50.474Z,16.46
2018-09-02T00:48:50.571Z,16.48
2018-09-02T00:49:50.403Z,16.46
2018-09-02T00:50:50.439Z,16.5
2018-09-02T00:51:50.706Z,16.5
2018-09-02T00:52:50.434Z,16.5
2018-09-02T00:53:50.479Z,16.51
2018-09-02T00:54:50.455Z,16.51
2018-09-02T00:55:50.443Z,16.54
2018-09-02T00:56:50.628Z,16.54
2018-09-02T00:57:50.493Z,16.51
2018-09-02T00:58:50.624Z,16.54
2018-09-02T00:59:50.422Z,16.52
2018-09-02T01:00:50.430Z,16.53
2018-09-02T01:01:50.451Z,16.53
2018-09-02T01:02:50.559Z,16.53
2018-09-02T01:03:50.453Z,16.56
2018-09-02T01:04:50.543Z,16.55
2018-09-02T01:05:50.436Z,16.56
2018-09-02T01:06:50.473Z,16.57
2018-09-02T01:07:50.477Z,16.59
2018-09-02T01:08:50.488Z,16.61
2018-09-02T01:09:50.448Z,16.61
2018-09-02T01:10:50.573Z,16.6
2018-09-02T01:11:50.924Z,16.61
2018-09-02T01:12:50.806Z,16.62
2018-09-02T01:13:50.569Z,16.63
2018-09-02T01:14:50.865Z,16.63
2018-09-02T01:15:50.472Z,16.63
2018-09-02T01:16:50.521Z,16.65
2018-09-02T01:17:50.520Z,16.63
2018-09-02T01:18:50.642Z,16.66
2018-09-02T01:19:50.529Z,16.66
2018-09-02T01:20:50.520Z,16.64
2018-09-02T01:21:50.678Z,16.67
2018-09-02T01:22:50.888Z,16.67
2018-09-02T01:23:50.443Z,16.69
2018-09-02T01:24:50.657Z,16.68
2018-09-02T01:25:50.506Z,16.7
2018-09-02T01:26:50.462Z,16.69
2018-09-02T01:27:50.496Z,16.69
2018-09-02T01:28:50.491Z,16.68
2018-09-02T01:29:50.499Z,16.67
2018-09-02T01:30:50.513Z,16.68
2018-09-02T01:31:50.615Z,16.71
2018-09-02T01:32:50.519Z,16.7
2018-09-02T01:33:50.481Z,16.68
2018-09-02T01:34:50.721Z,16.7
2018-09-02T01:35:50.576Z,16.7
2018-09-02T01:36:50.551Z,16.71
2018-09-02T01:37:50.519Z,16.68
2018-09-02T01:38:50.537Z,16.67
2018-09-02T01:39:50.522Z,16.7
2018-09-02T01:40:50.489Z,16.69
2018-09-02T01:41:50.457Z,16.67
2018-09-02T01:42:50.494Z,16.68
2018-09-02T01:43:50.475Z,16.7
2018-09-02T01:44:50.508Z,16.67
2018-09-02T01:45:50.548Z,16.67
2018-09-02T01:46:50.493Z,16.7
2018-09-02T01:47:50.453Z,16.72
2018-09-02T01:48:50.496Z,16.69
2018-09-02T01:49:50.480Z,16.69
2018-09-02T01:50:50.566Z,16.69
2018-09-02T01:51:50.556Z,16.7
2018-09-02T01:52:50.483Z,16.7
2018-09-02T01:53:50.519Z,16.7
2018-09-02T01:54:50.503Z,16.71
2018-09-02T01:55:50.507Z,16.72
2018-09-02T01:56:50.557Z,16.71
2018-09-02T01:57:50.522Z,16.72
2018-09-02T01:58:50.502Z,16.73
2018-09-02T01:59:50.636Z,16.74
2018-09-02T02:00:50.498Z,16.72
2018-09-02T02:01:50.547Z,16.73
2018-09-02T02:02:50.537Z,16.72
2018-09-02T02:03:50.557Z,16.72
2018-09-02T02:04:50.543Z,16.71
2018-09-02T02:05:50.577Z,16.71
2018-09-02T02:06:50.699Z,16.7
2018-09-02T02:07:50.594Z,16.69
2018-09-02T02:08:50.807Z,16.67
2018-09-02T02:09:50.609Z,16.67
2018-09-02T02:10:50.749Z,16.65
2018-09-02T02:11:50.694Z,16.62
2018-09-02T02:12:50.655Z,16.62
2018-09-02T02:13:50.844Z,16.62
2018-09-02T02:14:50.589Z,16.62
2018-09-02T02:15:50.542Z,16.61
2018-09-02T02:16:50.554Z,16.63
2018-09-02T02:17:50.518Z,16.64
2018-09-02T02:18:50.508Z,16.65
2018-09-02T02:19:50.550Z,16.68
2018-09-02T02:20:50.570Z,16.66
2018-09-02T02:21:50.561Z,16.69
2018-09-02T02:22:50.563Z,16.69
2018-09-02T02:23:50.625Z,16.71
2018-09-02T02:24:50.813Z,16.71
2018-09-02T02:25:50.528Z,16.71
2018-09-02T02:26:50.536Z,16.71
2018-09-02T02:27:50.524Z,16.69
2018-09-02T02:28:50.569Z,16.69
2018-09-02T02:29:50.524Z,16.7
2018-09-02T02:30:50.710Z,16.7
2018-09-02T02:31:50.593Z,16.71
2018-09-02T02:32:50.565Z,16.74
2018-09-02T02:33:50.629Z,16.73
2018-09-02T02:34:50.565Z,16.74
2018-09-02T02:35:50.602Z,16.75
2018-09-02T02:36:50.614Z,16.76
2018-09-02T02:37:50.699Z,16.76
2018-09-02T02:38:50.509Z,16.74
2018-09-02T02:39:50.697Z,16.72
2018-09-02T02:40:50.641Z,16.7
2018-09-02T02:41:50.558Z,16.7
2018-09-02T02:42:50.561Z,16.73
2018-09-02T02:43:50.549Z,16.71
2018-09-02T02:44:50.578Z,16.72
2018-09-02T02:45:50.572Z,16.71
2018-09-02T02:46:50.594Z,16.69
2018-09-02T02:47:50.572Z,16.69
2018-09-02T02:48:50.790Z,16.69
2018-09-02T02:49:50.589Z,16.67
2018-09-02T02:50:50.558Z,16.69
2018-09-02T02:51:50.593Z,16.69
2018-09-02T02:52:50.656Z,16.7
2018-09-02T02:53:50.599Z,16.7
2018-09-02T02:54:50.601Z,16.71
2018-09-02T02:55:50.601Z,16.7
2018-09-02T02:56:50.609Z,16.69
2018-09-02T02:57:50.599Z,16.68
2018-09-02T02:58:50.554Z,16.67
2018-09-02T02:59:50.563Z,16.7
2018-09-02T03:00:50.773Z,16.7
2018-09-02T03:01:50.625Z,16.67
2018-09-02T03:02:50.622Z,16.69
2018-09-02T03:03:50.715Z,16.66
2018-09-02T03:04:50.635Z,16.66
2018-09-02T03:05:50.774Z,16.63
2018-09-02T03:06:50.840Z,16.63
2018-09-02T03:07:50.591Z,16.58
2018-09-02T03:08:51.040Z,16.58
2018-09-02T03:09:50.704Z,16.6
2018-09-02T03:10:51.914Z,16.61
2018-09-02T03:11:50.789Z,16.58
2018-09-02T03:12:50.597Z,16.56
2018-09-02T03:13:50.633Z,16.53
2018-09-02T03:14:50.673Z,16.48
2018-09-02T03:15:50.594Z,16.48
2018-09-02T03:16:50.892Z,16.46
2018-09-02T03:17:50.580Z,16.49
2018-09-02T03:18:50.761Z,16.48
2018-09-02T03:19:50.585Z,16.51
2018-09-02T03:20:50.674Z,16.49
2018-09-02T03:21:50.588Z,16.47
2018-09-02T03:22:50.624Z,16.49
2018-09-02T03:23:50.696Z,16.5
2018-09-02T03:24:50.610Z,16.44
2018-09-02T03:25:50.601Z,16.47
2018-09-02T03:26:50.646Z,16.44
2018-09-02T03:27:50.744Z,16.45
2018-09-02T03:28:50.607Z,16.38
2018-09-02T03:29:50.666Z,16.36
2018-09-02T03:30:50.643Z,16.37
2018-09-02T03:31:50.600Z,16.32
2018-09-02T03:32:50.607Z,16.34
2018-09-02T03:33:50.593Z,16.33
2018-09-02T03:34:50.609Z,16.31
2018-09-02T03:35:50.979Z,16.28
2018-09-02T03:36:50.586Z,16.29
2018-09-02T03:37:50.641Z,16.23
2018-09-02T03:38:50.590Z,16.18
2018-09-02T03:39:50.684Z,16.13
2018-09-02T03:40:50.622Z,16.11
2018-09-02T03:41:50.605Z,16.12
2018-09-02T03:42:50.600Z,16.12
2018-09-02T03:43:50.631Z,16.05
2018-09-02T03:44:50.625Z,16.06
2018-09-02T03:45:50.677Z,15.99
2018-09-02T03:46:50.629Z,16.04
2018-09-02T03:47:50.741Z,15.93
2018-09-02T03:48:50.762Z,15.91
2018-09-02T03:49:50.600Z,15.88
2018-09-02T03:50:50.636Z,15.93
2018-09-02T03:51:50.662Z,15.88
2018-09-02T03:52:50.616Z,15.92
2018-09-02T03:53:50.668Z,15.91
2018-09-02T03:54:50.673Z,15.86
2018-09-02T03:55:50.697Z,15.85
2018-09-02T03:56:50.700Z,15.85
2018-09-02T03:57:50.627Z,15.83
2018-09-02T03:58:50.763Z,15.8
2018-09-02T03:59:50.717Z,15.82
2018-09-02T04:00:50.674Z,15.81
2018-09-02T04:01:50.797Z,15.82
2018-09-02T04:02:50.729Z,15.81
2018-09-02T04:03:50.671Z,15.79
2018-09-02T04:04:50.894Z,15.84
2018-09-02T04:05:50.687Z,15.88
2018-09-02T04:06:50.723Z,15.88
2018-09-02T04:07:50.845Z,15.86
2018-09-02T04:08:50.686Z,15.86
2018-09-02T04:09:50.719Z,15.83
2018-09-02T04:10:50.757Z,15.89
2018-09-02T04:11:50.663Z,15.91
2018-09-02T04:12:50.711Z,15.94
2018-09-02T04:13:50.702Z,15.97
2018-09-02T04:14:50.720Z,15.97
2018-09-02T04:15:50.739Z,15.97
2018-09-02T04:16:50.842Z,16
2018-09-02T04:17:50.661Z,16
2018-09-02T04:18:50.661Z,15.98
2018-09-02T04:19:50.845Z,15.96
2018-09-02T04:20:50.842Z,15.99
2018-09-02T04:21:50.684Z,15.99
2018-09-02T04:22:50.658Z,16
2018-09-02T04:23:50.798Z,16.03
2018-09-02T04:24:50.664Z,16.04
2018-09-02T04:25:50.913Z,15.97
2018-09-02T04:26:50.643Z,15.98
2018-09-02T04:27:50.661Z,15.98
2018-09-02T04:28:50.667Z,15.94
2018-09-02T04:29:50.641Z,15.96
2018-09-02T04:30:50.725Z,15.98
2018-09-02T04:31:50.666Z,16.01
2018-09-02T04:32:50.731Z,16.03
2018-09-02T04:33:52.071Z,16.05
2018-09-02T04:34:50.688Z,15.98
2018-09-02T04:35:50.782Z,15.95
2018-09-02T04:36:51.196Z,15.96
2018-09-02T04:37:50.812Z,15.94
2018-09-02T04:38:50.697Z,15.99
2018-09-02T04:39:50.714Z,15.96
2018-09-02T04:40:50.754Z,15.97
2018-09-02T04:41:50.782Z,15.94
2018-09-02T04:42:50.744Z,15.99
2018-09-02T04:43:50.740Z,15.92
2018-09-02T04:44:50.720Z,15.91
2018-09-02T04:45:50.719Z,15.85
2018-09-02T04:46:50.683Z,15.87
2018-09-02T04:47:50.719Z,15.89
2018-09-02T04:48:51.021Z,15.93
2018-09-02T04:49:50.746Z,15.95
2018-09-02T04:50:50.726Z,15.87
2018-09-02T04:51:50.705Z,15.91
2018-09-02T04:52:50.724Z,15.89
2018-09-02T04:53:50.731Z,15.89
2018-09-02T04:54:50.727Z,15.91
2018-09-02T04:55:50.704Z,15.92
2018-09-02T04:56:50.796Z,15.92
2018-09-02T04:57:50.755Z,15.89
2018-09-02T04:58:50.684Z,15.85
2018-09-02T04:59:50.687Z,15.88
2018-09-02T05:00:50.769Z,15.87
2018-09-02T05:01:50.674Z,15.9
2018-09-02T05:02:50.690Z,15.89
2018-09-02T05:03:50.721Z,15.9
2018-09-02T05:04:51.190Z,15.93
2018-09-02T05:05:50.723Z,15.94
2018-09-02T05:06:50.797Z,15.98
2018-09-02T05:07:50.985Z,15.98
2018-09-02T05:08:50.772Z,16.02
2018-09-02T05:09:50.732Z,16.03
2018-09-02T05:10:50.717Z,16.06
2018-09-02T05:11:50.831Z,16.07
2018-09-02T05:12:50.785Z,16.08
2018-09-02T05:13:50.862Z,16.11
2018-09-02T05:14:50.685Z,16.11
2018-09-02T05:15:50.695Z,16.12
2018-09-02T05:16:50.720Z,16.14
2018-09-02T05:17:51.259Z,16.14
2018-09-02T05:18:50.701Z,16.15
2018-09-02T05:19:50.732Z,16.13
2018-09-02T05:20:50.738Z,16.1
2018-09-02T05:21:50.793Z,16.08
2018-09-02T05:22:50.765Z,16.06
2018-09-02T05:23:51.223Z,16.07
2018-09-02T05:24:50.753Z,16.1
2018-09-02T05:25:50.722Z,16.14
2018-09-02T05:26:50.753Z,16.17
2018-09-02T05:27:50.779Z,16.14
2018-09-02T05:28:50.771Z,16.18
2018-09-02T05:29:50.723Z,16.17
2018-09-02T05:30:50.855Z,16.2
2018-09-02T05:31:50.749Z,16.21
2018-09-02T05:32:50.756Z,16.22
2018-09-02T05:33:50.736Z,16.24
2018-09-02T05:34:51.163Z,16.26
2018-09-02T05:35:50.825Z,16.27
2018-09-02T05:36:51.324Z,16.24
2018-09-02T05:37:50.798Z,16.23
2018-09-02T05:38:50.806Z,16.24
2018-09-02T05:39:50.744Z,16.26
2018-09-02T05:40:50.762Z,16.18
2018-09-02T05:41:51.566Z,16.19
2018-09-02T05:42:50.918Z,16.17
2018-09-02T05:43:51.300Z,16.19
2018-09-02T05:44:50.740Z,16.21
2018-09-02T05:45:50.920Z,16.23
2018-09-02T05:46:50.814Z,16.26
2018-09-02T05:47:50.871Z,16.26
2018-09-02T05:48:50.774Z,16.29
2018-09-02T05:49:50.894Z,16.29
2018-09-02T05:50:50.783Z,16.34
2018-09-02T05:51:50.726Z,16.37
2018-09-02T05:52:50.843Z,16.35
2018-09-02T05:53:50.784Z,16.36
2018-09-02T05:54:50.761Z,16.36
2018-09-02T05:55:50.850Z,16.38
2018-09-02T05:56:50.828Z,16.36
2018-09-02T05:57:50.830Z,16.36
2018-09-02T05:58:50.787Z,16.37
2018-09-02T05:59:50.771Z,16.34
2018-09-02T06:00:50.949Z,16.32
2018-09-02T06:01:50.873Z,16.35
2018-09-02T06:02:51.989Z,16.33
2018-09-02T06:03:50.829Z,16.36
2018-09-02T06:04:50.782Z,16.33
2018-09-02T06:05:50.770Z,16.32
2018-09-02T06:06:50.823Z,16.37
2018-09-02T06:07:50.785Z,16.33
2018-09-02T06:08:50.752Z,16.34
2018-09-02T06:09:50.768Z,16.3
2018-09-02T06:10:50.766Z,16.33
2018-09-02T06:11:50.774Z,16.36
2018-09-02T06:12:50.827Z,16.33
2018-09-02T06:13:50.763Z,16.35
2018-09-02T06:14:50.758Z,16.37
2018-09-02T06:15:50.801Z,16.38
2018-09-02T06:16:50.766Z,16.37
2018-09-02T06:17:50.776Z,16.36
2018-09-02T06:18:50.792Z,16.32
2018-09-02T06:19:50.805Z,16.3
2018-09-02T06:20:50.779Z,16.34
2018-09-02T06:21:50.806Z,16.33
2018-09-02T06:22:50.795Z,16.37
2018-09-02T06:23:50.857Z,16.37
2018-09-02T06:24:50.835Z,16.38
2018-09-02T06:25:50.795Z,16.4
2018-09-02T06:26:50.944Z,16.39
2018-09-02T06:27:50.918Z,16.39
2018-09-02T06:28:50.819Z,16.43
2018-09-02T06:29:50.888Z,16.41
2018-09-02T06:30:51.035Z,16.41
2018-09-02T06:31:50.801Z,16.36
2018-09-02T06:32:51.881Z,16.37
2018-09-02T06:33:50.851Z,16.39
2018-09-02T06:34:50.805Z,16.37
2018-09-02T06:35:50.956Z,16.39
2018-09-02T06:36:50.908Z,16.42
2018-09-02T06:37:50.858Z,16.39
2018-09-02T06:38:50.832Z,16.36
2018-09-02T06:39:50.870Z,16.34
2018-09-02T06:40:51.269Z,16.33
2018-09-02T06:41:50.803Z,16.3
2018-09-02T06:42:50.821Z,16.31
2018-09-02T06:43:50.980Z,16.32
2018-09-02T06:44:50.915Z,16.31
2018-09-02T06:45:52.371Z,16.31
2018-09-02T06:46:51.041Z,16.31
2018-09-02T06:47:50.847Z,16.29
2018-09-02T06:48:51.127Z,16.31
2018-09-02T06:49:51.003Z,16.31
2018-09-02T06:50:50.844Z,16.31
2018-09-02T06:51:50.975Z,16.33
2018-09-02T06:52:50.937Z,16.36
2018-09-02T06:53:50.916Z,16.36
2018-09-02T06:54:51.041Z,16.37
2018-09-02T06:55:50.830Z,16.35
2018-09-02T06:56:51.250Z,16.37
2018-09-02T06:57:50.864Z,16.39
2018-09-02T06:58:50.897Z,16.39
2018-09-02T06:59:50.943Z,16.41
2018-09-02T07:00:51.176Z,16.4
2018-09-02T07:01:50.817Z,16.38
2018-09-02T07:02:50.863Z,16.42
2018-09-02T07:03:50.830Z,16.42
2018-09-02T07:04:50.896Z,16.43
2018-09-02T07:05:50.835Z,16.43
2018-09-02T07:06:51.330Z,16.42
2018-09-02T07:07:50.883Z,16.42
2018-09-02T07:08:50.840Z,16.44
2018-09-02T07:09:50.830Z,16.47
2018-09-02T07:10:51.117Z,16.47
2018-09-02T07:11:50.967Z,16.51
2018-09-02T07:12:50.890Z,16.5
2018-09-02T07:13:50.887Z,16.52
2018-09-02T07:14:50.931Z,16.56
2018-09-02T07:15:50.960Z,16.57
2018-09-02T07:16:50.896Z,16.59
2018-09-02T07:17:51.270Z,16.61
2018-09-02T07:18:50.891Z,16.63
2018-09-02T07:19:50.879Z,16.67
2018-09-02T07:20:51.193Z,16.68
2018-09-02T07:21:51.029Z,16.69
2018-09-02T07:22:50.834Z,16.73
2018-09-02T07:23:50.891Z,16.76
2018-09-02T07:24:51.227Z,16.73
2018-09-02T07:25:50.825Z,16.75
2018-09-02T07:26:50.853Z,16.75
2018-09-02T07:27:50.847Z,16.78
2018-09-02T07:28:50.869Z,16.8
2018-09-02T07:29:50.881Z,16.84
2018-09-02T07:30:50.855Z,16.85
2018-09-02T07:31:50.888Z,16.9
2018-09-02T07:32:50.865Z,16.92
2018-09-02T07:33:50.880Z,16.93
2018-09-02T07:34:50.860Z,16.9
2018-09-02T07:35:50.857Z,16.92
2018-09-02T07:36:50.864Z,16.98
2018-09-02T07:37:50.838Z,17.02
2018-09-02T07:38:50.866Z,17.04
2018-09-02T07:39:50.841Z,17.11
2018-09-02T07:40:50.872Z,17.13
2018-09-02T07:41:50.837Z,17.17
2018-09-02T07:42:50.929Z,17.18
2018-09-02T07:43:52.556Z,17.22
2018-09-02T07:44:51.218Z,17.22
2018-09-02T07:45:50.977Z,17.29
2018-09-02T07:46:51.024Z,17.31
2018-09-02T07:47:51.117Z,17.37
2018-09-02T07:48:50.900Z,17.43
2018-09-02T07:49:50.895Z,17.45
2018-09-02T07:50:50.886Z,17.5
2018-09-02T07:51:50.838Z,17.57
2018-09-02T07:52:51.004Z,17.62
2018-09-02T07:53:51.186Z,17.6
2018-09-02T07:54:50.902Z,17.63
2018-09-02T07:55:51.240Z,17.64
2018-09-02T07:56:51.077Z,17.66
2018-09-02T07:57:50.901Z,17.67
2018-09-02T07:58:50.848Z,17.68
2018-09-02T07:59:51.278Z,17.69
2018-09-02T08:00:51.288Z,17.71
2018-09-02T08:01:51.185Z,17.7
2018-09-02T08:02:52.437Z,17.71
2018-09-02T08:03:50.872Z,17.74
2018-09-02T08:04:50.881Z,17.75
2018-09-02T08:05:50.908Z,17.74
2018-09-02T08:06:50.907Z,17.72
2018-09-02T08:07:50.844Z,17.73
2018-09-02T08:08:50.853Z,17.75
2018-09-02T08:09:51.449Z,17.77
2018-09-02T08:10:50.906Z,17.81
2018-09-02T08:11:50.947Z,17.82
2018-09-02T08:12:53.450Z,17.82
2018-09-02T08:13:50.841Z,17.79
2018-09-02T08:14:50.889Z,17.78
2018-09-02T08:15:51.281Z,17.78
2018-09-02T08:16:50.903Z,17.81
2018-09-02T08:17:50.936Z,17.83
2018-09-02T08:18:51.082Z,17.81
2018-09-02T08:19:51.407Z,17.82
2018-09-02T08:20:50.830Z,17.83
2018-09-02T08:21:50.952Z,17.82
2018-09-02T08:22:50.819Z,17.83
2018-09-02T08:23:51.216Z,17.87
2018-09-02T08:24:50.941Z,17.88
2018-09-02T08:25:51.439Z,17.87
2018-09-02T08:26:50.859Z,17.88
2018-09-02T08:27:50.935Z,17.9
2018-09-02T08:28:50.926Z,17.9
2018-09-02T08:29:50.969Z,17.88
2018-09-02T08:30:50.969Z,17.89
2018-09-02T08:31:50.883Z,17.93
2018-09-02T08:32:51.759Z,17.9
2018-09-02T08:33:50.848Z,17.94
2018-09-02T08:34:51.104Z,17.94
2018-09-02T08:35:50.863Z,17.91
2018-09-02T08:36:51.222Z,17.95
2018-09-02T08:37:50.978Z,17.96
2018-09-02T08:38:52.307Z,17.97
2018-09-02T08:39:50.882Z,18
2018-09-02T08:40:50.879Z,18
2018-09-02T08:41:50.919Z,17.97
2018-09-02T08:42:50.835Z,18.01
2018-09-02T08:43:51.019Z,18.01
2018-09-02T08:44:50.894Z,17.99
2018-09-02T08:45:50.826Z,18.01
2018-09-02T08:46:51.174Z,18.01
2018-09-02T08:47:50.929Z,18.03
2018-09-02T08:48:50.814Z,18.07
2018-09-02T08:49:50.961Z,18.06
2018-09-02T08:50:50.831Z,18.08
2018-09-02T08:51:50.903Z,18.1
2018-09-02T08:52:50.796Z,18.15
2018-09-02T08:53:50.842Z,18.16
2018-09-02T08:54:50.914Z,18.16
2018-09-02T08:55:51.220Z,18.17
2018-09-02T08:56:50.839Z,18.15
2018-09-02T08:57:50.826Z,18.2
2018-09-02T08:58:50.804Z,18.22
2018-09-02T08:59:50.864Z,18.24
2018-09-02T09:00:51.151Z,18.26
2018-09-02T09:01:51.053Z,18.28
2018-09-02T09:02:50.924Z,18.28
2018-09-02T09:03:50.798Z,18.29
2018-09-02T09:04:50.850Z,18.25
2018-09-02T09:05:50.894Z,18.28
2018-09-02T09:06:50.924Z,18.33
2018-09-02T09:07:53.481Z,18.33
2018-09-02T09:08:53.444Z,18.36
2018-09-02T09:09:51.155Z,18.35
2018-09-02T09:10:50.860Z,18.33
2018-09-02T09:11:50.805Z,18.35
2018-09-02T09:12:50.809Z,18.33
2018-09-02T09:13:50.947Z,18.34
2018-09-02T09:14:50.954Z,18.35
2018-09-02T09:15:50.949Z,18.32
2018-09-02T09:16:52.818Z,18.28
2018-09-02T09:17:50.818Z,18.25
2018-09-02T09:18:50.932Z,18.28
2018-09-02T09:19:52.858Z,18.27
2018-09-02T09:20:51.172Z,18.25
2018-09-02T09:21:51.232Z,18.23
2018-09-02T09:22:50.842Z,18.25
2018-09-02T09:23:51.421Z,18.26
2018-09-02T09:24:50.912Z,18.27
2018-09-02T09:25:50.902Z,18.27
2018-09-02T09:26:50.871Z,18.29
2018-09-02T09:27:50.822Z,18.31
2018-09-02T09:28:50.937Z,18.33
2018-09-02T09:29:51.292Z,18.29
2018-09-02T09:30:50.823Z,18.28
2018-09-02T09:31:51.927Z,18.22
2018-09-02T09:32:50.812Z,18.23
2018-09-02T09:33:51.306Z,18.28
2018-09-02T09:34:51.086Z,18.28
2018-09-02T09:35:51.154Z,18.31
2018-09-02T09:36:50.800Z,18.32
2018-09-02T09:37:51.306Z,18.35
2018-09-02T09:38:50.876Z,18.36
2018-09-02T09:39:51.937Z,18.36
2018-09-02T09:40:51.776Z,18.37
2018-09-02T09:41:51.257Z,18.39
2018-09-02T09:42:51.341Z,18.34
2018-09-02T09:43:51.168Z,18.39
2018-09-02T09:44:51.535Z,18.44
2018-09-02T09:45:51.507Z,18.44
2018-09-02T09:46:50.933Z,18.42
2018-09-02T09:47:50.973Z,18.41
2018-09-02T09:48:50.840Z,18.34
2018-09-02T09:49:50.882Z,18.38
2018-09-02T09:50:50.945Z,18.36
2018-09-02T09:51:50.841Z,18.26
2018-09-02T09:52:50.880Z,18.28
2018-09-02T09:53:50.844Z,18.2
2018-09-02T09:54:50.820Z,18.22
2018-09-02T09:55:51.924Z,18.27
2018-09-02T09:56:50.838Z,18.28
2018-09-02T09:57:51.143Z,18.28
2018-09-02T09:58:50.842Z,18.3
2018-09-02T09:59:50.903Z,18.33
2018-09-02T10:00:51.181Z,18.35
2018-09-02T10:01:50.806Z,18.36
2018-09-02T10:02:51.155Z,18.39
2018-09-02T10:03:50.837Z,18.42
2018-09-02T10:04:50.806Z,18.45
2018-09-02T10:05:51.003Z,18.48
2018-09-02T10:06:50.831Z,18.47
2018-09-02T10:07:50.836Z,18.51
2018-09-02T10:08:50.777Z,18.53
2018-09-02T10:09:51.341Z,18.54
2018-09-02T10:10:50.973Z,18.57
2018-09-02T10:11:51.986Z,18.57
2018-09-02T10:12:50.869Z,18.6
2018-09-02T10:13:50.789Z,18.6
2018-09-02T10:14:50.875Z,18.62
2018-09-02T10:15:50.836Z,18.64
2018-09-02T10:16:50.823Z,18.6
2018-09-02T10:17:50.789Z,18.6
2018-09-02T10:18:50.803Z,18.6
2018-09-02T10:19:50.801Z,18.57
2018-09-02T10:20:50.837Z,18.55
2018-09-02T10:21:50.786Z,18.58
2018-09-02T10:22:50.813Z,18.62
2018-09-02T10:23:51.023Z,18.58
2018-09-02T10:24:50.942Z,18.51
2018-09-02T10:25:50.868Z,18.46
2018-09-02T10:26:50.911Z,18.42
2018-09-02T10:27:51.170Z,18.45
2018-09-02T10:28:50.972Z,18.45
2018-09-02T10:29:50.888Z,18.39
2018-09-02T10:30:51.285Z,18.4
2018-09-02T10:31:54.955Z,18.41
2018-09-02T10:32:51.302Z,18.37
2018-09-02T10:33:50.874Z,18.33
2018-09-02T10:34:52.088Z,18.23
2018-09-02T10:35:50.781Z,18.24
2018-09-02T10:36:51.000Z,18.26
2018-09-02T10:37:50.913Z,18.26
2018-09-02T10:38:51.351Z,18.23
2018-09-02T10:39:51.215Z,18.24
2018-09-02T10:40:51.158Z,18.26
2018-09-02T10:41:51.055Z,18.26
2018-09-02T10:42:50.965Z,18.25
2018-09-02T10:43:51.107Z,18.28
2018-09-02T10:44:50.978Z,18.3
2018-09-02T10:45:52.049Z,18.28
2018-09-02T10:46:50.962Z,18.33
2018-09-02T10:47:50.981Z,18.35
2018-09-02T10:48:51.294Z,18.29
2018-09-02T10:49:50.804Z,18.27
2018-09-02T10:50:50.913Z,18.29
2018-09-02T10:51:50.990Z,18.35
2018-09-02T10:52:50.899Z,18.34
2018-09-02T10:53:51.028Z,18.3
2018-09-02T10:54:51.229Z,18.29
2018-09-02T10:55:50.816Z,18.36
2018-09-02T10:56:50.931Z,18.39
2018-09-02T10:57:50.839Z,18.41
2018-09-02T10:58:51.004Z,18.45
2018-09-02T10:59:51.126Z,18.45
2018-09-02T11:00:51.000Z,18.42
2018-09-02T11:01:51.272Z,18.41
2018-09-02T11:02:50.851Z,18.47
2018-09-02T11:03:50.897Z,18.48
2018-09-02T11:04:50.899Z,18.54
2018-09-02T11:05:50.917Z,18.59
2018-09-02T11:06:50.935Z,18.51
2018-09-02T11:07:52.063Z,18.56
2018-09-02T11:08:52.074Z,18.55
2018-09-02T11:09:50.780Z,18.54
2018-09-02T11:10:50.933Z,18.52
2018-09-02T11:11:51.060Z,18.61
2018-09-02T11:12:51.155Z,18.68
2018-09-02T11:13:53.265Z,18.65
2018-09-02T11:14:51.288Z,18.71
2018-09-02T11:15:50.861Z,18.75
2018-09-02T11:16:50.846Z,18.77
2018-09-02T11:17:51.252Z,18.78
2018-09-02T11:18:51.280Z,18.7
2018-09-02T11:19:52.031Z,18.76
2018-09-02T11:20:51.086Z,18.81
2018-09-02T11:21:51.144Z,18.8
2018-09-02T11:22:51.334Z,18.88
2018-09-02T11:23:50.809Z,18.9
2018-09-02T11:24:51.958Z,18.91
2018-09-02T11:25:50.894Z,18.91
2018-09-02T11:26:50.968Z,18.88
2018-09-02T11:27:51.002Z,18.87
2018-09-02T11:28:50.848Z,18.85
2018-09-02T11:29:50.773Z,18.87
2018-09-02T11:30:51.913Z,18.83
2018-09-02T11:31:50.875Z,18.8
2018-09-02T11:32:51.087Z,18.81
2018-09-02T11:33:51.320Z,18.79
2018-09-02T11:34:52.325Z,18.83
2018-09-02T11:35:50.947Z,18.82
2018-09-02T11:36:50.953Z,18.81
2018-09-02T11:37:50.955Z,18.73
2018-09-02T11:38:52.208Z,18.68
2018-09-02T11:39:53.031Z,18.65
2018-09-02T11:40:50.952Z,18.69
2018-09-02T11:41:53.064Z,18.69
2018-09-02T11:42:53.221Z,18.69
2018-09-02T11:43:50.744Z,18.71
2018-09-02T11:44:50.815Z,18.74
2018-09-02T11:45:50.983Z,18.76
2018-09-02T11:46:52.274Z,18.71
2018-09-02T11:47:51.101Z,18.75
2018-09-02T11:48:51.047Z,18.77
2018-09-02T11:49:51.622Z,18.77
2018-09-02T11:50:51.412Z,18.81
2018-09-02T11:51:50.769Z,18.83
2018-09-02T11:52:51.032Z,18.85
2018-09-02T11:53:50.928Z,18.85
2018-09-02T11:54:51.037Z,18.87
2018-09-02T11:55:50.954Z,18.88
2018-09-02T11:56:50.848Z,18.88
2018-09-02T11:57:52.345Z,18.84
2018-09-02T11:58:51.257Z,18.85
2018-09-02T11:59:51.093Z,18.82
2018-09-02T12:00:50.977Z,18.84
2018-09-02T12:01:51.114Z,18.87
2018-09-02T12:02:51.200Z,18.84
2018-09-02T12:03:51.524Z,18.83
2018-09-02T12:04:51.644Z,18.87
2018-09-02T12:05:51.116Z,18.88
2018-09-02T12:06:50.784Z,18.85
2018-09-02T12:07:51.328Z,18.88
2018-09-02T12:08:50.951Z,18.89
2018-09-02T12:09:50.939Z,18.91
2018-09-02T12:10:51.086Z,18.91
2018-09-02T12:11:52.084Z,18.95
2018-09-02T12:12:50.892Z,18.97
2018-09-02T12:13:51.210Z,18.97
2018-09-02T12:14:50.877Z,19.01
2018-09-02T12:15:50.981Z,19.04
2018-09-02T12:16:50.983Z,19.04
2018-09-02T12:17:52.216Z,19.04
2018-09-02T12:18:50.900Z,19.03
2018-09-02T12:19:50.883Z,19.03
2018-09-02T12:20:51.096Z,19.04
2018-09-02T12:21:51.008Z,19.03
2018-09-02T12:22:50.954Z,19.04
2018-09-02T12:23:51.238Z,19.05
2018-09-02T12:24:50.925Z,19.06
2018-09-02T12:25:51.046Z,19.07
2018-09-02T12:26:50.840Z,18.97
2018-09-02T12:27:50.835Z,19
2018-09-02T12:28:51.161Z,18.98
2018-09-02T12:29:50.874Z,18.95
2018-09-02T12:30:50.978Z,19
2018-09-02T12:31:50.893Z,19.02
2018-09-02T12:32:51.088Z,19.03
2018-09-02T12:33:50.987Z,19.01
2018-09-02T12:34:50.900Z,19.02
2018-09-02T12:35:50.907Z,19.02
2018-09-02T12:36:50.922Z,18.99
2018-09-02T12:37:50.835Z,19.02
2018-09-02T12:38:52.190Z,19.02
2018-09-02T12:39:50.760Z,19.01
2018-09-02T12:40:50.943Z,19.04
2018-09-02T12:41:50.958Z,19.06
2018-09-02T12:42:50.760Z,19.04
2018-09-02T12:43:56.716Z,19.08
2018-09-02T12:44:50.812Z,19.09
2018-09-02T12:45:51.182Z,19.09
2018-09-02T12:46:50.809Z,19.1
2018-09-02T12:47:53.120Z,19.1
2018-09-02T12:48:51.026Z,19.11
2018-09-02T12:49:50.771Z,19.08
2018-09-02T12:50:51.157Z,19.1
2018-09-02T12:51:51.033Z,19.13
2018-09-02T12:52:50.851Z,19.14
2018-09-02T12:53:50.817Z,19.14
2018-09-02T12:54:50.942Z,19.15
2018-09-02T12:55:51.250Z,19.16